sensor_id;sensor_type;location;lat;lon;timestamp;pressure;altitude;pressure_sealevel;temperature;humidity
58473;BME280;44775;51.564;5.460;2024-03-07T00:00:06;102241.84;;;3.98;100.00
58473;BME280;44775;51.564;5.460;2024-03-07T00:02:46;102248.81;;;3.99;100.00
58473;BME280;44775;51.564;5.460;2024-03-07T00:05:13;102247.31;;;3.95;100.00
58473;BME280;44775;51.564;5.460;2024-03-07T00:07:38;102252.91;;;4.05;100.00
58473;BME280;44775;51.564;5.460;2024-03-07T00:10:05;102248.66;;;4.02;100.00
58473;BME280;44775;51.564;5.460;2024-03-07T00:12:35;102246.47;;;4.09;100.00
58473;BME280;44775;51.564;5.460;2024-03-07T00:15:04;102241.09;;;4.25;100.00
58473;BME280;44775;51.564;5.460;2024-03-07T00:17:30;102243.19;;;4.20;100.00
58473;BME280;44775;51.564;5.460;2024-03-07T00:19:55;102250.09;;;4.22;100.00
58473;BME280;44775;51.564;5.460;2024-03-07T00:22:21;102246.13;;;4.30;100.00
58473;BME280;44775;51.564;5.460;2024-03-07T00:24:47;102246.19;;;4.28;100.00
58473;BME280;44775;51.564;5.460;2024-03-07T00:27:13;102245.28;;;4.29;100.00
58473;BME280;44775;51.564;5.460;2024-03-07T00:29:41;102243.66;;;4.26;100.00
58473;BME280;44775;51.564;5.460;2024-03-07T00:32:08;102245.94;;;4.33;100.00
58473;BME280;44775;51.564;5.460;2024-03-07T00:34:34;102244.69;;;4.38;100.00
58473;BME280;44775;51.564;5.460;2024-03-07T00:36:59;102244.69;;;4.38;100.00
58473;BME280;44775;51.564;5.460;2024-03-07T00:39:25;102246.41;;;4.39;100.00
58473;BME280;44775;51.564;5.460;2024-03-07T00:41:51;102240.53;;;4.48;100.00
58473;BME280;44775;51.564;5.460;2024-03-07T00:44:16;102238.28;;;4.57;100.00
58473;BME280;44775;51.564;5.460;2024-03-07T00:46:41;102239.59;;;4.49;100.00
58473;BME280;44775;51.564;5.460;2024-03-07T00:49:07;102238.66;;;4.50;100.00
58473;BME280;44775;51.564;5.460;2024-03-07T00:51:32;102234.66;;;4.58;100.00
58473;BME280;44775;51.564;5.460;2024-03-07T00:53:57;102230.88;;;4.62;100.00
58473;BME280;44775;51.564;5.460;2024-03-07T00:56:25;102234.28;;;4.64;100.00
58473;BME280;44775;51.564;5.460;2024-03-07T00:58:51;102231.19;;;4.57;100.00
58473;BME280;44775;51.564;5.460;2024-03-07T01:01:17;102226.00;;;4.56;100.00
58473;BME280;44775;51.564;5.460;2024-03-07T01:03:44;102231.19;;;4.57;100.00
58473;BME280;44775;51.564;5.460;2024-03-07T01:06:09;102218.44;;;4.49;100.00
58473;BME280;44775;51.564;5.460;2024-03-07T01:08:36;102228.06;;;4.50;100.00
58473;BME280;44775;51.564;5.460;2024-03-07T01:11:05;102229.09;;;4.48;100.00
58473;BME280;44775;51.564;5.460;2024-03-07T01:13:38;102229.94;;;4.48;100.00
58473;BME280;44775;51.564;5.460;2024-03-07T01:16:04;102222.97;;;4.47;100.00
58473;BME280;44775;51.564;5.460;2024-03-07T01:18:29;102216.81;;;4.47;100.00
58473;BME280;44775;51.564;5.460;2024-03-07T01:20:55;102215.31;;;4.43;100.00
58473;BME280;44775;51.564;5.460;2024-03-07T01:23:21;102220.31;;;4.47;100.00
58473;BME280;44775;51.564;5.460;2024-03-07T01:25:46;102214.72;;;4.38;100.00
58473;BME280;44775;51.564;5.460;2024-03-07T01:28:11;102209.56;;;4.36;100.00
58473;BME280;44775;51.564;5.460;2024-03-07T01:30:39;102214.44;;;4.28;100.00
58473;BME280;44775;51.564;5.460;2024-03-07T01:33:04;102209.19;;;4.42;100.00
58473;BME280;44775;51.564;5.460;2024-03-07T01:35:29;102208.78;;;4.34;100.00
58473;BME280;44775;51.564;5.460;2024-03-07T01:37:54;102211.34;;;4.36;100.00
58473;BME280;44775;51.564;5.460;2024-03-07T01:40:20;102200.47;;;4.26;100.00
58473;BME280;44775;51.564;5.460;2024-03-07T01:42:49;102209.34;;;4.39;100.00
58473;BME280;44775;51.564;5.460;2024-03-07T01:45:16;102201.88;;;4.32;100.00
58473;BME280;44775;51.564;5.460;2024-03-07T01:47:42;102192.44;;;4.13;100.00
58473;BME280;44775;51.564;5.460;2024-03-07T01:50:07;102191.78;;;4.10;100.00
58473;BME280;44775;51.564;5.460;2024-03-07T01:52:33;102199.41;;;4.14;100.00
58473;BME280;44775;51.564;5.460;2024-03-07T01:54:58;102188.56;;;4.19;100.00
58473;BME280;44775;51.564;5.460;2024-03-07T01:57:24;102194.59;;;4.21;100.00
58473;BME280;44775;51.564;5.460;2024-03-07T01:59:51;102180.53;;;4.06;100.00
58473;BME280;44775;51.564;5.460;2024-03-07T02:02:16;102184.31;;;4.16;100.00
58473;BME280;44775;51.564;5.460;2024-03-07T02:04:43;102190.34;;;4.18;100.00
58473;BME280;44775;51.564;5.460;2024-03-07T02:07:08;102186.13;;;4.16;100.00
58473;BME280;44775;51.564;5.460;2024-03-07T02:09:36;102191.28;;;4.17;100.00
58473;BME280;44775;51.564;5.460;2024-03-07T02:12:02;102181.94;;;4.26;100.00
58473;BME280;44775;51.564;5.460;2024-03-07T02:14:27;102182.88;;;4.11;100.00
58473;BME280;44775;51.564;5.460;2024-03-07T02:16:53;102186.47;;;4.10;100.00
58473;BME280;44775;51.564;5.460;2024-03-07T02:19:21;102175.97;;;4.08;100.00
58473;BME280;44775;51.564;5.460;2024-03-07T02:21:46;102174.09;;;3.96;100.00
58473;BME280;44775;51.564;5.460;2024-03-07T02:24:11;102173.81;;;4.00;100.00
58473;BME280;44775;51.564;5.460;2024-03-07T02:26:37;102172.00;;;3.87;100.00
58473;BME280;44775;51.564;5.460;2024-03-07T02:29:04;102174.09;;;3.82;100.00
58473;BME280;44775;51.564;5.460;2024-03-07T02:31:30;102175.50;;;3.87;100.00
58473;BME280;44775;51.564;5.460;2024-03-07T02:34:05;102181.16;;;3.81;100.00
58473;BME280;44775;51.564;5.460;2024-03-07T02:36:33;102171.94;;;3.88;100.00
58473;BME280;44775;51.564;5.460;2024-03-07T02:38:58;102173.59;;;3.75;100.00
58473;BME280;44775;51.564;5.460;2024-03-07T02:41:24;102160.00;;;3.81;100.00
58473;BME280;44775;51.564;5.460;2024-03-07T02:43:50;102168.81;;;3.82;100.00
58473;BME280;44775;51.564;5.460;2024-03-07T02:46:15;102168.41;;;3.73;100.00
58473;BME280;44775;51.564;5.460;2024-03-07T02:48:41;102173.78;;;3.72;100.00
58473;BME280;44775;51.564;5.460;2024-03-07T02:51:06;102155.72;;;3.64;100.00
58473;BME280;44775;51.564;5.460;2024-03-07T02:53:32;102169.50;;;3.55;100.00
58473;BME280;44775;51.564;5.460;2024-03-07T02:55:58;102159.28;;;3.49;100.00
58473;BME280;44775;51.564;5.460;2024-03-07T02:58:23;102160.63;;;3.56;100.00
58473;BME280;44775;51.564;5.460;2024-03-07T03:00:56;102152.78;;;3.54;100.00
58473;BME280;44775;51.564;5.460;2024-03-07T03:03:21;102161.16;;;3.47;100.00
58473;BME280;44775;51.564;5.460;2024-03-07T03:05:47;102145.97;;;3.50;100.00
58473;BME280;44775;51.564;5.460;2024-03-07T03:08:12;102158.16;;;3.53;100.00
58473;BME280;44775;51.564;5.460;2024-03-07T03:10:39;102156.66;;;3.49;100.00
58473;BME280;44775;51.564;5.460;2024-03-07T03:13:04;102152.75;;;3.40;100.00
58473;BME280;44775;51.564;5.460;2024-03-07T03:15:29;102154.66;;;3.52;100.00
58473;BME280;44775;51.564;5.460;2024-03-07T03:17:55;102149.75;;;3.46;100.00
58473;BME280;44775;51.564;5.460;2024-03-07T03:20:24;102152.84;;;3.39;100.00
58473;BME280;44775;51.564;5.460;2024-03-07T03:22:53;102148.50;;;3.38;100.00
58473;BME280;44775;51.564;5.460;2024-03-07T03:25:20;102153.16;;;3.48;100.00
58473;BME280;44775;51.564;5.460;2024-03-07T03:27:47;102145.28;;;3.33;100.00
58473;BME280;44775;51.564;5.460;2024-03-07T03:30:12;102144.25;;;3.35;100.00
58473;BME280;44775;51.564;5.460;2024-03-07T03:32:42;102143.41;;;3.35;100.00
58473;BME280;44775;51.564;5.460;2024-03-07T03:35:07;102140.28;;;3.28;100.00
58473;BME280;44775;51.564;5.460;2024-03-07T03:37:39;102142.91;;;3.28;100.00
58473;BME280;44775;51.564;5.460;2024-03-07T03:40:05;102140.34;;;3.26;100.00
58473;BME280;44775;51.564;5.460;2024-03-07T03:42:30;102131.75;;;3.23;100.00
58473;BME280;44775;51.564;5.460;2024-03-07T03:44:55;102129.88;;;3.25;100.00
58473;BME280;44775;51.564;5.460;2024-03-07T03:47:21;102125.56;;;3.38;100.00
58473;BME280;44775;51.564;5.460;2024-03-07T03:49:46;102123.94;;;3.21;100.00
58473;BME280;44775;51.564;5.460;2024-03-07T03:52:12;102124.78;;;3.22;100.00
58473;BME280;44775;51.564;5.460;2024-03-07T03:54:37;102125.50;;;3.24;100.00
58473;BME280;44775;51.564;5.460;2024-03-07T03:57:03;102128.34;;;3.21;100.00
58473;BME280;44775;51.564;5.460;2024-03-07T03:59:28;102120.00;;;3.13;100.00
58473;BME280;44775;51.564;5.460;2024-03-07T04:01:53;102119.13;;;3.28;100.00
58473;BME280;44775;51.564;5.460;2024-03-07T04:04:18;102120.97;;;3.12;100.00
58473;BME280;44775;51.564;5.460;2024-03-07T04:06:44;102124.72;;;3.07;100.00
58473;BME280;44775;51.564;5.460;2024-03-07T04:09:09;102119.16;;;3.12;100.00
58473;BME280;44775;51.564;5.460;2024-03-07T04:11:35;102116.19;;;3.02;100.00
58473;BME280;44775;51.564;5.460;2024-03-07T04:14:00;102110.41;;;3.12;100.00
58473;BME280;44775;51.564;5.460;2024-03-07T04:16:26;102115.63;;;2.97;100.00
58473;BME280;44775;51.564;5.460;2024-03-07T04:18:51;102119.06;;;3.14;100.00
58473;BME280;44775;51.564;5.460;2024-03-07T04:21:17;102119.03;;;2.99;100.00
58473;BME280;44775;51.564;5.460;2024-03-07T04:23:42;102114.25;;;2.90;100.00
58473;BME280;44775;51.564;5.460;2024-03-07T04:26:07;102126.38;;;2.94;100.00
58473;BME280;44775;51.564;5.460;2024-03-07T04:28:34;102123.84;;;3.07;100.00
58473;BME280;44775;51.564;5.460;2024-03-07T04:30:59;102126.88;;;3.01;100.00
58473;BME280;44775;51.564;5.460;2024-03-07T04:33:24;102133.44;;;3.24;100.00
58473;BME280;44775;51.564;5.460;2024-03-07T04:35:50;102128.22;;;3.08;100.00
58473;BME280;44775;51.564;5.460;2024-03-07T04:38:19;102127.75;;;3.16;100.00
58473;BME280;44775;51.564;5.460;2024-03-07T04:40:44;102123.78;;;3.08;100.00
58473;BME280;44775;51.564;5.460;2024-03-07T04:43:09;102116.25;;;3.17;100.00
58473;BME280;44775;51.564;5.460;2024-03-07T04:45:35;102127.53;;;3.04;100.00
58473;BME280;44775;51.564;5.460;2024-03-07T04:48:00;102121.25;;;2.91;100.00
58473;BME280;44775;51.564;5.460;2024-03-07T04:50:26;102110.53;;;2.94;100.00
58473;BME280;44775;51.564;5.460;2024-03-07T04:52:51;102108.13;;;2.90;100.00
58473;BME280;44775;51.564;5.460;2024-03-07T04:55:17;102112.34;;;2.78;100.00
58473;BME280;44775;51.564;5.460;2024-03-07T04:57:43;102113.53;;;2.72;100.00
58473;BME280;44775;51.564;5.460;2024-03-07T05:00:13;102116.66;;;2.95;100.00
58473;BME280;44775;51.564;5.460;2024-03-07T05:02:43;102112.22;;;2.95;100.00
58473;BME280;44775;51.564;5.460;2024-03-07T05:05:08;102116.31;;;3.01;100.00
58473;BME280;44775;51.564;5.460;2024-03-07T05:07:33;102114.88;;;2.79;100.00
58473;BME280;44775;51.564;5.460;2024-03-07T05:10:04;102116.28;;;2.71;100.00
58473;BME280;44775;51.564;5.460;2024-03-07T05:12:30;102116.69;;;2.63;100.00
58473;BME280;44775;51.564;5.460;2024-03-07T05:14:55;102113.03;;;2.50;100.00
58473;BME280;44775;51.564;5.460;2024-03-07T05:17:21;102114.81;;;2.49;100.00
58473;BME280;44775;51.564;5.460;2024-03-07T05:19:47;102114.81;;;2.49;100.00
58473;BME280;44775;51.564;5.460;2024-03-07T05:22:14;102108.16;;;2.42;100.00
58473;BME280;44775;51.564;5.460;2024-03-07T05:24:41;102118.22;;;2.35;100.00
58473;BME280;44775;51.564;5.460;2024-03-07T05:27:08;102118.66;;;2.28;100.00
58473;BME280;44775;51.564;5.460;2024-03-07T05:29:33;102110.28;;;2.35;100.00
58473;BME280;44775;51.564;5.460;2024-03-07T05:32:22;102116.03;;;2.44;100.00
58473;BME280;44775;51.564;5.460;2024-03-07T05:34:47;102108.19;;;2.26;100.00
58473;BME280;44775;51.564;5.460;2024-03-07T05:37:13;102115.50;;;2.21;100.00
58473;BME280;44775;51.564;5.460;2024-03-07T05:39:38;102111.16;;;2.36;100.00
58473;BME280;44775;51.564;5.460;2024-03-07T05:42:04;102117.38;;;2.35;100.00
58473;BME280;44775;51.564;5.460;2024-03-07T05:44:29;102117.53;;;2.32;100.00
58473;BME280;44775;51.564;5.460;2024-03-07T05:46:55;102112.53;;;2.27;100.00
58473;BME280;44775;51.564;5.460;2024-03-07T05:49:20;102121.28;;;2.28;100.00
58473;BME280;44775;51.564;5.460;2024-03-07T05:51:46;102126.06;;;2.37;100.00
58473;BME280;44775;51.564;5.460;2024-03-07T05:54:12;102115.00;;;2.30;100.00
58473;BME280;44775;51.564;5.460;2024-03-07T05:56:38;102123.66;;;2.48;100.00
58473;BME280;44775;51.564;5.460;2024-03-07T05:59:05;102120.88;;;2.67;100.00
58473;BME280;44775;51.564;5.460;2024-03-07T06:01:38;102115.81;;;2.63;100.00
58473;BME280;44775;51.564;5.460;2024-03-07T06:04:05;102121.44;;;2.56;100.00
58473;BME280;44775;51.564;5.460;2024-03-07T06:06:32;102117.28;;;2.52;100.00
58473;BME280;44775;51.564;5.460;2024-03-07T06:09:07;102115.41;;;2.70;100.00
58473;BME280;44775;51.564;5.460;2024-03-07T06:11:33;102117.00;;;2.73;100.00
58473;BME280;44775;51.564;5.460;2024-03-07T06:13:59;102112.94;;;2.67;100.00
58473;BME280;44775;51.564;5.460;2024-03-07T06:16:24;102108.06;;;2.75;100.00
58473;BME280;44775;51.564;5.460;2024-03-07T06:18:49;102112.84;;;2.69;100.00
58473;BME280;44775;51.564;5.460;2024-03-07T06:21:15;102112.06;;;2.82;100.00
58473;BME280;44775;51.564;5.460;2024-03-07T06:23:41;102112.28;;;2.64;100.00
58473;BME280;44775;51.564;5.460;2024-03-07T06:26:08;102110.72;;;2.75;100.00
58473;BME280;44775;51.564;5.460;2024-03-07T06:28:38;102124.84;;;2.58;100.00
58473;BME280;44775;51.564;5.460;2024-03-07T06:31:04;102123.25;;;2.72;100.00
58473;BME280;44775;51.564;5.460;2024-03-07T06:33:33;102118.56;;;2.61;100.00
58473;BME280;44775;51.564;5.460;2024-03-07T06:35:58;102118.28;;;2.66;100.00
58473;BME280;44775;51.564;5.460;2024-03-07T06:38:23;102120.59;;;2.72;100.00
58473;BME280;44775;51.564;5.460;2024-03-07T06:40:49;102123.63;;;2.80;100.00
58473;BME280;44775;51.564;5.460;2024-03-07T06:43:14;102110.31;;;2.67;100.00
58473;BME280;44775;51.564;5.460;2024-03-07T06:45:40;102117.78;;;2.75;100.00
58473;BME280;44775;51.564;5.460;2024-03-07T06:48:07;102111.88;;;3.01;100.00
58473;BME280;44775;51.564;5.460;2024-03-07T06:50:33;102108.44;;;3.15;100.00
58473;BME280;44775;51.564;5.460;2024-03-07T06:52:59;102113.72;;;3.15;100.00
58473;BME280;44775;51.564;5.460;2024-03-07T06:55:24;102114.16;;;3.07;100.00
58473;BME280;44775;51.564;5.460;2024-03-07T06:57:49;102113.13;;;3.10;100.00
58473;BME280;44775;51.564;5.460;2024-03-07T07:00:15;102112.53;;;3.05;100.00
58473;BME280;44775;51.564;5.460;2024-03-07T07:02:48;102114.19;;;3.22;100.00
58473;BME280;44775;51.564;5.460;2024-03-07T07:05:13;102110.03;;;3.18;100.00
58473;BME280;44775;51.564;5.460;2024-03-07T07:07:44;102114.38;;;3.19;100.00
58473;BME280;44775;51.564;5.460;2024-03-07T07:10:10;102119.03;;;3.29;100.00
58473;BME280;44775;51.564;5.460;2024-03-07T07:12:46;102114.06;;;3.39;100.00
58473;BME280;44775;51.564;5.460;2024-03-07T07:15:14;102119.06;;;3.44;100.00
58473;BME280;44775;51.564;5.460;2024-03-07T07:17:41;102115.97;;;3.51;100.00
58473;BME280;44775;51.564;5.460;2024-03-07T07:20:07;102119.59;;;3.65;100.00
58473;BME280;44775;51.564;5.460;2024-03-07T07:22:36;102113.16;;;3.54;100.00
58473;BME280;44775;51.564;5.460;2024-03-07T07:25:02;102107.31;;;3.78;100.00
58473;BME280;44775;51.564;5.460;2024-03-07T07:27:30;102109.75;;;3.67;100.00
58473;BME280;44775;51.564;5.460;2024-03-07T07:29:55;102109.97;;;3.92;100.00
58473;BME280;44775;51.564;5.460;2024-03-07T07:32:20;102106.19;;;3.82;100.00
58473;BME280;44775;51.564;5.460;2024-03-07T07:34:48;102106.06;;;3.98;100.00
58473;BME280;44775;51.564;5.460;2024-03-07T07:37:13;102105.44;;;4.09;100.00
58473;BME280;44775;51.564;5.460;2024-03-07T07:39:41;102103.91;;;4.19;100.00
58473;BME280;44775;51.564;5.460;2024-03-07T07:42:06;102100.78;;;4.26;100.00
58473;BME280;44775;51.564;5.460;2024-03-07T07:44:34;102095.94;;;4.33;100.00
58473;BME280;44775;51.564;5.460;2024-03-07T07:47:00;102092.94;;;4.52;100.00
58473;BME280;44775;51.564;5.460;2024-03-07T07:49:25;102102.03;;;4.89;100.00
58473;BME280;44775;51.564;5.460;2024-03-07T07:51:50;102102.13;;;5.40;100.00
58473;BME280;44775;51.564;5.460;2024-03-07T07:54:16;102103.66;;;6.45;100.00
58473;BME280;44775;51.564;5.460;2024-03-07T07:56:41;102109.19;;;7.49;100.00
58473;BME280;44775;51.564;5.460;2024-03-07T07:59:06;102122.41;;;8.18;100.00
58473;BME280;44775;51.564;5.460;2024-03-07T08:01:34;102121.88;;;8.69;100.00
58473;BME280;44775;51.564;5.460;2024-03-07T08:04:00;102123.44;;;9.15;100.00
58473;BME280;44775;51.564;5.460;2024-03-07T08:06:27;102129.63;;;9.58;100.00
58473;BME280;44775;51.564;5.460;2024-03-07T08:08:52;102126.22;;;10.07;100.00
58473;BME280;44775;51.564;5.460;2024-03-07T08:11:17;102120.50;;;10.52;100.00
58473;BME280;44775;51.564;5.460;2024-03-07T08:13:43;102121.69;;;10.79;100.00
58473;BME280;44775;51.564;5.460;2024-03-07T08:16:10;102133.25;;;11.08;100.00
58473;BME280;44775;51.564;5.460;2024-03-07T08:18:36;102124.66;;;11.24;100.00
58473;BME280;44775;51.564;5.460;2024-03-07T08:21:01;102127.34;;;11.34;100.00
58473;BME280;44775;51.564;5.460;2024-03-07T08:23:27;102133.94;;;11.49;100.00
58473;BME280;44775;51.564;5.460;2024-03-07T08:25:54;102133.47;;;11.73;100.00
58473;BME280;44775;51.564;5.460;2024-03-07T08:28:20;102135.41;;;11.91;100.00
58473;BME280;44775;51.564;5.460;2024-03-07T08:30:45;102138.88;;;12.11;100.00
58473;BME280;44775;51.564;5.460;2024-03-07T08:33:11;102138.69;;;12.22;100.00
58473;BME280;44775;51.564;5.460;2024-03-07T08:35:37;102136.41;;;12.27;100.00
58473;BME280;44775;51.564;5.460;2024-03-07T08:38:03;102134.13;;;12.32;100.00
58473;BME280;44775;51.564;5.460;2024-03-07T08:40:29;102129.03;;;12.39;100.00
58473;BME280;44775;51.564;5.460;2024-03-07T08:43:01;102128.41;;;12.45;100.00
58473;BME280;44775;51.564;5.460;2024-03-07T08:45:27;102132.28;;;12.60;100.00
58473;BME280;44775;51.564;5.460;2024-03-07T08:47:54;102129.13;;;12.65;100.00
58473;BME280;44775;51.564;5.460;2024-03-07T08:50:20;102126.06;;;12.60;100.00
58473;BME280;44775;51.564;5.460;2024-03-07T08:52:46;102124.38;;;12.59;100.00
58473;BME280;44775;51.564;5.460;2024-03-07T08:55:14;102119.19;;;12.75;100.00
58473;BME280;44775;51.564;5.460;2024-03-07T08:57:41;102123.22;;;12.61;92.45
58473;BME280;44775;51.564;5.460;2024-03-07T09:00:07;102114.22;;;12.80;100.00
58473;BME280;44775;51.564;5.460;2024-03-07T09:02:40;102112.56;;;12.51;94.30
58473;BME280;44775;51.564;5.460;2024-03-07T09:05:07;102112.69;;;12.77;97.84
58473;BME280;44775;51.564;5.460;2024-03-07T09:07:35;102113.59;;;12.68;97.19
58473;BME280;44775;51.564;5.460;2024-03-07T09:10:00;102118.81;;;12.88;96.98
58473;BME280;44775;51.564;5.460;2024-03-07T09:12:26;102114.16;;;13.08;95.02
58473;BME280;44775;51.564;5.460;2024-03-07T09:14:51;102116.22;;;13.32;92.43
58473;BME280;44775;51.564;5.460;2024-03-07T09:17:23;102110.13;;;13.48;89.97
58473;BME280;44775;51.564;5.460;2024-03-07T09:19:48;102118.56;;;13.53;88.96
58473;BME280;44775;51.564;5.460;2024-03-07T09:22:14;102111.28;;;13.45;87.95
58473;BME280;44775;51.564;5.460;2024-03-07T09:24:39;102116.25;;;13.58;87.28
58473;BME280;44775;51.564;5.460;2024-03-07T09:27:04;102119.06;;;13.74;85.46
58473;BME280;44775;51.564;5.460;2024-03-07T09:29:30;102108.31;;;13.74;84.91
58473;BME280;44775;51.564;5.460;2024-03-07T09:31:55;102115.59;;;13.90;83.70
58473;BME280;44775;51.564;5.460;2024-03-07T09:34:23;102112.13;;;13.98;82.85
58473;BME280;44775;51.564;5.460;2024-03-07T09:36:48;102112.34;;;14.04;79.20
58473;BME280;44775;51.564;5.460;2024-03-07T09:39:14;102108.53;;;14.23;80.59
58473;BME280;44775;51.564;5.460;2024-03-07T09:41:40;102101.50;;;14.22;79.77
58473;BME280;44775;51.564;5.460;2024-03-07T09:44:14;102105.72;;;14.33;79.16
58473;BME280;44775;51.564;5.460;2024-03-07T09:46:45;102095.47;;;14.28;78.49
58473;BME280;44775;51.564;5.460;2024-03-07T09:49:11;102104.81;;;14.50;77.86
58473;BME280;44775;51.564;5.460;2024-03-07T09:51:37;102098.50;;;14.33;77.08
58473;BME280;44775;51.564;5.460;2024-03-07T09:54:03;102095.53;;;14.10;70.31
58473;BME280;44775;51.564;5.460;2024-03-07T09:56:30;102094.97;;;14.33;76.53
58473;BME280;44775;51.564;5.460;2024-03-07T09:59:04;102089.03;;;14.55;75.46
58473;BME280;44775;51.564;5.460;2024-03-07T10:01:33;102095.09;;;14.66;74.50
58473;BME280;44775;51.564;5.460;2024-03-07T10:04:00;102087.53;;;14.69;74.21
58473;BME280;44775;51.564;5.460;2024-03-07T10:06:42;102091.91;;;14.70;73.20
58473;BME280;44775;51.564;5.460;2024-03-07T10:09:10;102089.88;;;14.64;73.21
58473;BME280;44775;51.564;5.460;2024-03-07T10:11:42;102098.63;;;14.74;74.12
58473;BME280;44775;51.564;5.460;2024-03-07T10:14:08;102091.56;;;14.81;72.64
58473;BME280;44775;51.564;5.460;2024-03-07T10:16:34;102082.19;;;14.94;72.12
58473;BME280;44775;51.564;5.460;2024-03-07T10:18:59;102086.56;;;15.03;71.02
58473;BME280;44775;51.564;5.460;2024-03-07T10:21:27;102071.75;;;14.91;71.53
58473;BME280;44775;51.564;5.460;2024-03-07T10:24:08;102092.28;;;15.16;69.83
58473;BME280;44775;51.564;5.460;2024-03-07T10:26:35;102081.69;;;15.23;70.35
58473;BME280;44775;51.564;5.460;2024-03-07T10:29:00;102078.16;;;15.22;69.90
58473;BME280;44775;51.564;5.460;2024-03-07T10:31:32;102076.97;;;15.33;69.26
58473;BME280;44775;51.564;5.460;2024-03-07T10:33:59;102060.63;;;15.34;68.44
58473;BME280;44775;51.564;5.460;2024-03-07T10:36:25;102062.31;;;15.44;67.89
58473;BME280;44775;51.564;5.460;2024-03-07T10:38:50;102079.31;;;15.52;67.43
58473;BME280;44775;51.564;5.460;2024-03-07T10:41:22;102064.78;;;15.62;66.58
58473;BME280;44775;51.564;5.460;2024-03-07T10:43:57;102071.84;;;15.79;66.07
58473;BME280;44775;51.564;5.460;2024-03-07T10:46:25;102062.41;;;15.83;65.81
58473;BME280;44775;51.564;5.460;2024-03-07T10:48:54;102072.97;;;15.93;65.30
58473;BME280;44775;51.564;5.460;2024-03-07T10:51:26;102069.97;;;15.88;65.23
58473;BME280;44775;51.564;5.460;2024-03-07T10:54:17;102076.88;;;15.82;65.38
58473;BME280;44775;51.564;5.460;2024-03-07T10:56:59;102073.41;;;15.73;65.16
58473;BME280;44775;51.564;5.460;2024-03-07T10:59:31;102065.66;;;15.70;64.53
58473;BME280;44775;51.564;5.460;2024-03-07T11:02:24;102058.31;;;15.95;64.39
58473;BME280;44775;51.564;5.460;2024-03-07T11:04:52;102061.28;;;16.09;63.30
58473;BME280;44775;51.564;5.460;2024-03-07T11:07:20;102066.59;;;15.94;63.28
58473;BME280;44775;51.564;5.460;2024-03-07T11:09:49;102065.06;;;15.91;63.36
58473;BME280;44775;51.564;5.460;2024-03-07T11:12:14;102046.53;;;15.96;62.87
58473;BME280;44775;51.564;5.460;2024-03-07T11:14:42;102048.25;;;15.81;63.22
58473;BME280;44775;51.564;5.460;2024-03-07T11:17:09;102042.09;;;15.56;59.36
58473;BME280;44775;51.564;5.460;2024-03-07T11:19:38;102044.06;;;15.78;63.56
58473;BME280;44775;51.564;5.460;2024-03-07T11:22:04;102040.56;;;16.09;62.70
58473;BME280;44775;51.564;5.460;2024-03-07T11:24:43;102050.56;;;16.32;61.84
58473;BME280;44775;51.564;5.460;2024-03-07T11:27:09;102042.53;;;16.46;61.36
58473;BME280;44775;51.564;5.460;2024-03-07T11:32:11;102041.31;;;16.57;60.06
58473;BME280;44775;51.564;5.460;2024-03-07T11:34:38;102029.19;;;15.82;56.94
58473;BME280;44775;51.564;5.460;2024-03-07T11:37:06;102030.22;;;15.81;61.65
58473;BME280;44775;51.564;5.460;2024-03-07T11:39:43;102027.06;;;15.62;60.72
58473;BME280;44775;51.564;5.460;2024-03-07T11:42:27;102013.41;;;15.79;62.73
58473;BME280;44775;51.564;5.460;2024-03-07T11:44:59;102015.50;;;15.45;57.30
58473;BME280;44775;51.564;5.460;2024-03-07T11:47:25;102010.56;;;15.73;61.63
58473;BME280;44775;51.564;5.460;2024-03-07T11:49:54;102001.13;;;15.77;60.52
58473;BME280;44775;51.564;5.460;2024-03-07T11:52:20;102002.88;;;15.93;59.44
58473;BME280;44775;51.564;5.460;2024-03-07T11:54:45;102009.91;;;16.02;60.21
58473;BME280;44775;51.564;5.460;2024-03-07T11:57:18;101986.13;;;16.05;59.50
58473;BME280;44775;51.564;5.460;2024-03-07T11:59:52;101986.97;;;16.06;59.60
58473;BME280;44775;51.564;5.460;2024-03-07T12:02:18;101984.13;;;16.08;59.42
58473;BME280;44775;51.564;5.460;2024-03-07T12:04:47;101971.88;;;15.97;59.24
58473;BME280;44775;51.564;5.460;2024-03-07T12:07:13;101986.69;;;16.01;58.25
58473;BME280;44775;51.564;5.460;2024-03-07T12:09:42;101977.69;;;16.09;60.54
58473;BME280;44775;51.564;5.460;2024-03-07T12:12:11;101976.06;;;15.99;59.48
58473;BME280;44775;51.564;5.460;2024-03-07T12:14:37;101972.09;;;15.87;58.85
58473;BME280;44775;51.564;5.460;2024-03-07T12:17:04;101963.97;;;15.95;59.42
58473;BME280;44775;51.564;5.460;2024-03-07T12:19:33;101963.25;;;16.01;59.75
58473;BME280;44775;51.564;5.460;2024-03-07T12:22:02;101957.03;;;16.01;59.36
58473;BME280;44775;51.564;5.460;2024-03-07T12:24:29;101962.09;;;15.96;59.46
58473;BME280;44775;51.564;5.460;2024-03-07T12:27:08;101954.28;;;16.09;59.36
58473;BME280;44775;51.564;5.460;2024-03-07T12:29:35;101946.50;;;16.14;59.29
58473;BME280;44775;51.564;5.460;2024-03-07T12:32:02;101948.97;;;16.24;58.83
58473;BME280;44775;51.564;5.460;2024-03-07T12:34:29;101938.34;;;16.22;55.42
58473;BME280;44775;51.564;5.460;2024-03-07T12:36:55;101939.53;;;16.43;57.90
58473;BME280;44775;51.564;5.460;2024-03-07T12:39:27;101935.97;;;16.50;58.35
58473;BME280;44775;51.564;5.460;2024-03-07T12:41:58;101934.25;;;16.26;57.78
58473;BME280;44775;51.564;5.460;2024-03-07T12:44:23;101924.59;;;16.55;57.98
58473;BME280;44775;51.564;5.460;2024-03-07T12:46:51;101931.38;;;16.05;50.98
58473;BME280;44775;51.564;5.460;2024-03-07T12:49:24;101920.78;;;15.72;53.78
58473;BME280;44775;51.564;5.460;2024-03-07T12:51:53;101922.09;;;16.08;58.82